MDT,Max TemperatureF,Mean TemperatureF,Min TemperatureF,Max Dew PointF,MeanDew PointF,Min DewpointF,Max Humidity, Mean Humidity, Min Humidity, Max Sea Level PressureIn, Mean Sea Level PressureIn, Min Sea Level PressureIn, Max VisibilityMiles, Mean VisibilityMiles, Min VisibilityMiles, Max Wind SpeedMPH, Mean Wind SpeedMPH, Max Gust SpeedMPH,PrecipitationIn, CloudCover, Events, WindDirDegrees
2013-9-1,91,79,67,55,53,50,63,45,27,30.03,29.87,29.78,10,10,10,15,7,18,0.00,1,Thunderstorm,149
2013-9-2,90,79,68,54,52,50,57,42,26,30.18,29.90,29.80,10,10,10,17,9,21,0.00,2,Thunderstorm,107
2013-9-3,92,78,63,52,50,46,67,45,23,29.99,29.92,29.86,10,10,10,13,5,15,T,1,,161
2013-9-4,95,81,67,53,49,39,57,37,16,30.03,29.94,29.85,10,10,10,17,7,23,0.00,1,,137
2013-9-5,94,83,72,52,49,46,49,35,21,30.02,29.93,29.84,10,10,10,20,9,25,0.00,1,,135
2013-9-6,94,80,66,56,48,40,63,39,15,30.03,29.92,29.81,10,10,10,18,8,24,0.00,0,,123
2013-9-7,94,81,68,54,45,37,47,31,14,30.08,29.86,29.71,10,10,7,20,9,26,0.03,2,Rain-Thunderstorm,128
2013-9-8,83,73,63,63,55,49,93,64,35,30.04,29.87,29.80,10,10,2,22,5,25,0.04,4,Rain-Thunderstorm,320
2013-9-9,64,60,56,63,59,55,100,97,93,30.07,29.93,29.84,10,8,2,21,4,29,0.96,7,Rain,2
2013-9-10,63,61,59,61,60,58,100,95,90,30.11,29.96,29.89,10,9,2,10,5,13,0.20,7,Rain,195
2013-9-11,74,67,60,62,60,57,100,79,57,30.03,29.98,29.92,10,10,6,15,4,17,0.08,7,Rain,109
2013-9-12,78,69,59,62,57,54,97,70,43,30.02,29.96,29.87,10,10,10,28,8,36,T,3,,110
2013-9-13,79,67,54,59,56,49,93,65,36,29.97,29.85,29.73,10,9,1,22,9,25,0.70,2,Rain-Thunderstorm,93
2013-9-14,69,63,57,60,56,53,100,84,68,30.01,29.88,29.79,10,9,2,22,8,25,0.23,6,Rain-Thunderstorm,70
2013-9-15,76,65,54,58,54,51,93,70,46,29.99,29.95,29.89,10,10,10,14,5,17,T,3,,121
2013-9-16,80,68,55,59,53,52,93,66,39,30.05,29.97,29.89,10,10,10,16,7,20,0.00,1,,120
2013-9-17,75,66,57,61,53,48,84,64,44,29.98,29.83,29.67,10,10,7,23,10,31,0.07,2,Rain-Thunderstorm,111
2013-9-18,82,71,59,59,52,43,87,57,26,29.89,29.72,29.64,10,10,2,26,11,36,0.06,3,Rain-Thunderstorm,125
2013-9-19,75,62,49,52,38,25,83,50,16,29.96,29.91,29.79,10,10,10,13,5,16,0.00,0,,353
2013-9-20,80,64,47,44,35,28,66,41,16,30.06,29.95,29.87,10,10,10,16,6,20,0.00,0,,118
2013-9-21,85,71,57,49,39,36,56,38,20,29.90,29.77,29.63,10,10,10,22,11,26,0.00,3,,134
2013-9-22,70,60,49,53,48,45,86,64,42,29.79,29.63,29.51,10,9,2,37,13,46,0.56,5,Rain-Thunderstorm,145
2013-9-23,67,56,45,49,45,35,100,67,34,30.07,29.93,29.71,10,10,10,12,3,15,T,3,Rain,47
2013-9-24,74,60,45,49,41,33,89,57,25,30.14,29.97,29.76,10,10,10,20,9,24,0.00,0,,109
2013-9-25,79,67,55,36,31,25,47,30,13,29.73,29.51,29.36,10,10,10,31,16,41,0.00,0,,159
2013-9-26,78,68,57,38,29,22,47,31,14,29.57,29.48,29.42,10,10,10,35,18,46,T,1,,178
2013-9-27,60,50,40,48,39,31,93,64,35,30.12,29.85,29.59,10,10,6,30,8,35,0.16,6,Rain,271
2013-9-28,61,48,34,38,33,26,100,64,27,30.28,30.21,30.13,10,10,10,10,4,15,0.00,0,,87
2013-9-29,70,53,35,40,34,29,92,57,22,30.22,30.09,29.97,10,10,10,13,5,16,0.00,0,,98
2013-9-30,75,61,47,38,34,29,61,40,18,29.97,29.89,29.80,10,10,10,18,8,23,0.00,0,,103